Search for airport 
image banner adimage banner adimage banner ad
image banner ad

KPSP - Palm Springs Intl

Located in Palm Springs, United States

ICAO - PSP, IATA - PSP

Data provided by Airmate  

General information

Coordinates: N33°49'47" W116°30'24"
Elevation is 476 feet MSL.
Magnetic variation is 13° East
Rated:
View ratings:
[VIEW]
View others Airports in California

Operational data

Special qualification required
Current time UTC:
Current local time:
Weather
METAR: KPSP 240853Z AUTO 31006KT 10SM CLR 28/13 A2987 RMK AO2 SLP109 T02780133 50004
TAF: KPSP 240520Z 2406/2506 33011KT P6SM VCSH BKN100 FM240700 VRB05KT P6SM SCT200 FM242100 33015G25KT P6SM SKC
View NOTAMs / SUP AIP / TFR affecting this airport [VIEW]
Communications frequencies: [VIEW]

Runways:

RWY identifierQFULength (ft)Width (ft)SurfaceLDA (ft)
13R143°10000150ASPH6857
31L323°10000150ASPH8500
13L143°495275ASPH4952
31R323°495275ASPH4952

Airport contact information

Address: Palm Springs United States

Other aviation service providers

Flight schools

Palm Springs Aviators - Flying Club

Palm Springs Aviators - Flying Club

Eagle Flight Academy

Eagle Flight Academy

Satellite view of KPSP